sensor_id;sensor_type;location;lat;lon;timestamp;P1;durP1;ratioP1;P2;durP2;ratioP2
37507;SDS011;23360;46.936;15.514;2023-12-20T00:00:47;26.27;;;9.52;;
37507;SDS011;23360;46.936;15.514;2023-12-20T00:03:14;30.05;;;10.20;;
37507;SDS011;23360;46.936;15.514;2023-12-20T00:05:40;41.03;;;11.23;;
37507;SDS011;23360;46.936;15.514;2023-12-20T00:08:07;30.85;;;9.00;;
37507;SDS011;23360;46.936;15.514;2023-12-20T00:10:34;22.63;;;8.35;;
37507;SDS011;23360;46.936;15.514;2023-12-20T00:13:01;30.23;;;9.45;;
37507;SDS011;23360;46.936;15.514;2023-12-20T00:15:27;26.40;;;9.55;;
37507;SDS011;23360;46.936;15.514;2023-12-20T00:17:54;23.95;;;8.63;;
37507;SDS011;23360;46.936;15.514;2023-12-20T00:20:21;27.05;;;9.30;;
37507;SDS011;23360;46.936;15.514;2023-12-20T00:22:47;23.65;;;8.48;;
37507;SDS011;23360;46.936;15.514;2023-12-20T00:25:14;30.20;;;9.48;;
37507;SDS011;23360;46.936;15.514;2023-12-20T00:27:41;30.23;;;9.75;;
37507;SDS011;23360;46.936;15.514;2023-12-20T00:30:09;22.50;;;8.68;;
37507;SDS011;23360;46.936;15.514;2023-12-20T00:32:36;29.92;;;9.13;;
37507;SDS011;23360;46.936;15.514;2023-12-20T00:35:02;34.70;;;9.48;;
37507;SDS011;23360;46.936;15.514;2023-12-20T00:37:29;25.67;;;9.10;;
37507;SDS011;23360;46.936;15.514;2023-12-20T00:39:56;25.58;;;8.95;;
37507;SDS011;23360;46.936;15.514;2023-12-20T00:42:22;19.40;;;8.07;;
37507;SDS011;23360;46.936;15.514;2023-12-20T00:44:49;35.88;;;11.02;;
37507;SDS011;23360;46.936;15.514;2023-12-20T00:47:17;26.00;;;10.45;;
37507;SDS011;23360;46.936;15.514;2023-12-20T00:49:43;24.15;;;9.48;;
37507;SDS011;23360;46.936;15.514;2023-12-20T00:52:10;29.20;;;9.43;;
37507;SDS011;23360;46.936;15.514;2023-12-20T00:54:37;29.98;;;9.65;;
37507;SDS011;23360;46.936;15.514;2023-12-20T00:57:03;30.98;;;9.23;;
37507;SDS011;23360;46.936;15.514;2023-12-20T00:59:30;38.65;;;9.75;;
37507;SDS011;23360;46.936;15.514;2023-12-20T01:01:57;19.13;;;8.30;;
37507;SDS011;23360;46.936;15.514;2023-12-20T01:04:24;22.65;;;7.97;;
37507;SDS011;23360;46.936;15.514;2023-12-20T01:06:51;23.75;;;7.68;;
37507;SDS011;23360;46.936;15.514;2023-12-20T01:09:18;19.30;;;7.55;;
37507;SDS011;23360;46.936;15.514;2023-12-20T01:11:45;28.50;;;7.95;;
37507;SDS011;23360;46.936;15.514;2023-12-20T01:14:12;15.90;;;6.45;;
37507;SDS011;23360;46.936;15.514;2023-12-20T01:16:39;22.60;;;7.20;;
37507;SDS011;23360;46.936;15.514;2023-12-20T01:19:06;19.60;;;7.15;;
37507;SDS011;23360;46.936;15.514;2023-12-20T01:21:33;17.92;;;6.63;;
37507;SDS011;23360;46.936;15.514;2023-12-20T01:23:59;19.65;;;7.15;;
37507;SDS011;23360;46.936;15.514;2023-12-20T01:26:26;19.95;;;6.88;;
37507;SDS011;23360;46.936;15.514;2023-12-20T01:28:53;17.35;;;7.15;;
37507;SDS011;23360;46.936;15.514;2023-12-20T01:31:19;20.67;;;8.80;;
37507;SDS011;23360;46.936;15.514;2023-12-20T01:33:46;18.92;;;6.97;;
37507;SDS011;23360;46.936;15.514;2023-12-20T01:36:13;23.58;;;7.38;;
37507;SDS011;23360;46.936;15.514;2023-12-20T01:38:39;20.98;;;7.80;;
37507;SDS011;23360;46.936;15.514;2023-12-20T01:41:06;16.35;;;6.50;;
37507;SDS011;23360;46.936;15.514;2023-12-20T01:43:32;16.65;;;6.85;;
37507;SDS011;23360;46.936;15.514;2023-12-20T01:46:13;15.52;;;7.07;;
37507;SDS011;23360;46.936;15.514;2023-12-20T01:48:39;24.52;;;7.60;;
37507;SDS011;23360;46.936;15.514;2023-12-20T01:51:07;20.77;;;7.15;;
37507;SDS011;23360;46.936;15.514;2023-12-20T01:53:34;15.50;;;6.15;;
37507;SDS011;23360;46.936;15.514;2023-12-20T01:56:01;24.60;;;7.32;;
37507;SDS011;23360;46.936;15.514;2023-12-20T01:58:27;18.45;;;5.65;;
37507;SDS011;23360;46.936;15.514;2023-12-20T02:00:56;18.83;;;6.45;;
37507;SDS011;23360;46.936;15.514;2023-12-20T02:03:23;12.77;;;4.60;;
37507;SDS011;23360;46.936;15.514;2023-12-20T02:05:50;12.25;;;5.20;;
37507;SDS011;23360;46.936;15.514;2023-12-20T02:08:17;15.30;;;6.10;;
37507;SDS011;23360;46.936;15.514;2023-12-20T02:10:44;18.95;;;6.28;;
37507;SDS011;23360;46.936;15.514;2023-12-20T02:13:10;12.15;;;5.13;;
37507;SDS011;23360;46.936;15.514;2023-12-20T02:15:37;22.33;;;5.30;;
37507;SDS011;23360;46.936;15.514;2023-12-20T02:18:04;16.23;;;6.05;;
37507;SDS011;23360;46.936;15.514;2023-12-20T02:20:31;19.33;;;6.90;;
37507;SDS011;23360;46.936;15.514;2023-12-20T02:22:57;16.52;;;5.95;;
37507;SDS011;23360;46.936;15.514;2023-12-20T02:25:24;18.48;;;5.53;;
37507;SDS011;23360;46.936;15.514;2023-12-20T02:27:51;15.45;;;6.80;;
37507;SDS011;23360;46.936;15.514;2023-12-20T02:30:18;18.75;;;6.70;;
37507;SDS011;23360;46.936;15.514;2023-12-20T02:32:44;17.10;;;6.53;;
37507;SDS011;23360;46.936;15.514;2023-12-20T02:35:11;17.15;;;6.07;;
37507;SDS011;23360;46.936;15.514;2023-12-20T02:37:38;16.05;;;5.95;;
37507;SDS011;23360;46.936;15.514;2023-12-20T02:40:04;17.08;;;6.13;;
37507;SDS011;23360;46.936;15.514;2023-12-20T02:42:31;17.20;;;6.05;;
37507;SDS011;23360;46.936;15.514;2023-12-20T02:44:58;18.95;;;6.50;;
37507;SDS011;23360;46.936;15.514;2023-12-20T02:47:24;13.32;;;5.32;;
37507;SDS011;23360;46.936;15.514;2023-12-20T02:49:51;33.10;;;7.32;;
37507;SDS011;23360;46.936;15.514;2023-12-20T02:52:19;17.15;;;6.75;;
37507;SDS011;23360;46.936;15.514;2023-12-20T02:54:46;16.30;;;6.07;;
37507;SDS011;23360;46.936;15.514;2023-12-20T02:57:12;19.55;;;7.38;;
37507;SDS011;23360;46.936;15.514;2023-12-20T02:59:39;20.23;;;7.18;;
37507;SDS011;23360;46.936;15.514;2023-12-20T03:02:05;20.92;;;7.80;;
37507;SDS011;23360;46.936;15.514;2023-12-20T03:04:32;19.58;;;7.22;;
37507;SDS011;23360;46.936;15.514;2023-12-20T03:06:59;21.90;;;7.55;;
37507;SDS011;23360;46.936;15.514;2023-12-20T03:09:26;14.27;;;6.30;;
37507;SDS011;23360;46.936;15.514;2023-12-20T03:11:53;18.55;;;6.85;;
37507;SDS011;23360;46.936;15.514;2023-12-20T03:14:20;17.55;;;6.50;;
37507;SDS011;23360;46.936;15.514;2023-12-20T03:16:47;20.75;;;7.03;;
37507;SDS011;23360;46.936;15.514;2023-12-20T03:19:14;18.70;;;7.15;;
37507;SDS011;23360;46.936;15.514;2023-12-20T03:21:41;21.77;;;7.90;;
37507;SDS011;23360;46.936;15.514;2023-12-20T03:24:08;23.77;;;7.72;;
37507;SDS011;23360;46.936;15.514;2023-12-20T03:26:34;15.52;;;6.38;;
37507;SDS011;23360;46.936;15.514;2023-12-20T03:29:01;23.65;;;7.97;;
37507;SDS011;23360;46.936;15.514;2023-12-20T03:31:27;24.80;;;8.00;;
37507;SDS011;23360;46.936;15.514;2023-12-20T03:33:54;23.02;;;7.68;;
37507;SDS011;23360;46.936;15.514;2023-12-20T03:36:21;18.65;;;7.18;;
37507;SDS011;23360;46.936;15.514;2023-12-20T03:38:48;20.52;;;6.78;;
37507;SDS011;23360;46.936;15.514;2023-12-20T03:41:14;22.67;;;7.03;;
37507;SDS011;23360;46.936;15.514;2023-12-20T03:43:41;19.35;;;7.00;;
37507;SDS011;23360;46.936;15.514;2023-12-20T03:46:08;22.67;;;7.57;;
37507;SDS011;23360;46.936;15.514;2023-12-20T03:48:36;18.25;;;7.13;;
37507;SDS011;23360;46.936;15.514;2023-12-20T03:51:03;16.42;;;7.00;;
37507;SDS011;23360;46.936;15.514;2023-12-20T03:53:29;15.85;;;6.32;;
37507;SDS011;23360;46.936;15.514;2023-12-20T03:55:56;21.35;;;7.22;;
37507;SDS011;23360;46.936;15.514;2023-12-20T03:58:23;20.02;;;6.75;;
37507;SDS011;23360;46.936;15.514;2023-12-20T04:00:49;15.52;;;6.05;;
37507;SDS011;23360;46.936;15.514;2023-12-20T04:03:16;19.20;;;6.07;;
37507;SDS011;23360;46.936;15.514;2023-12-20T04:05:43;15.85;;;6.68;;
37507;SDS011;23360;46.936;15.514;2023-12-20T04:08:09;18.63;;;5.75;;
37507;SDS011;23360;46.936;15.514;2023-12-20T04:10:36;15.35;;;6.55;;
37507;SDS011;23360;46.936;15.514;2023-12-20T04:13:04;16.48;;;6.97;;
37507;SDS011;23360;46.936;15.514;2023-12-20T04:15:31;24.85;;;8.10;;
37507;SDS011;23360;46.936;15.514;2023-12-20T04:17:58;30.92;;;8.15;;
37507;SDS011;23360;46.936;15.514;2023-12-20T04:20:24;19.95;;;6.72;;
37507;SDS011;23360;46.936;15.514;2023-12-20T04:22:51;20.98;;;7.32;;
37507;SDS011;23360;46.936;15.514;2023-12-20T04:25:17;17.40;;;6.75;;
37507;SDS011;23360;46.936;15.514;2023-12-20T04:27:44;25.30;;;7.28;;
37507;SDS011;23360;46.936;15.514;2023-12-20T04:30:11;22.05;;;7.78;;
37507;SDS011;23360;46.936;15.514;2023-12-20T04:32:38;17.55;;;7.05;;
37507;SDS011;23360;46.936;15.514;2023-12-20T04:35:05;19.75;;;6.50;;
37507;SDS011;23360;46.936;15.514;2023-12-20T04:37:31;17.20;;;6.15;;
37507;SDS011;23360;46.936;15.514;2023-12-20T04:39:58;12.35;;;5.60;;
37507;SDS011;23360;46.936;15.514;2023-12-20T04:42:25;16.13;;;5.50;;
37507;SDS011;23360;46.936;15.514;2023-12-20T04:44:51;15.98;;;5.70;;
37507;SDS011;23360;46.936;15.514;2023-12-20T04:47:18;20.02;;;6.40;;
37507;SDS011;23360;46.936;15.514;2023-12-20T04:49:45;16.42;;;6.05;;
37507;SDS011;23360;46.936;15.514;2023-12-20T04:52:11;21.98;;;5.90;;
37507;SDS011;23360;46.936;15.514;2023-12-20T04:54:38;17.73;;;5.20;;
37507;SDS011;23360;46.936;15.514;2023-12-20T04:57:08;26.90;;;6.57;;
37507;SDS011;23360;46.936;15.514;2023-12-20T04:59:34;20.98;;;6.93;;
37507;SDS011;23360;46.936;15.514;2023-12-20T05:02:01;18.17;;;7.13;;
37507;SDS011;23360;46.936;15.514;2023-12-20T05:04:28;23.35;;;6.65;;
37507;SDS011;23360;46.936;15.514;2023-12-20T05:06:55;17.45;;;6.43;;
37507;SDS011;23360;46.936;15.514;2023-12-20T05:09:21;20.00;;;5.97;;
37507;SDS011;23360;46.936;15.514;2023-12-20T05:11:48;27.20;;;8.13;;
37507;SDS011;23360;46.936;15.514;2023-12-20T05:14:15;15.85;;;6.10;;
37507;SDS011;23360;46.936;15.514;2023-12-20T05:16:41;16.52;;;6.53;;
37507;SDS011;23360;46.936;15.514;2023-12-20T05:19:08;17.73;;;6.78;;
37507;SDS011;23360;46.936;15.514;2023-12-20T05:21:35;20.15;;;6.88;;
37507;SDS011;23360;46.936;15.514;2023-12-20T05:24:02;24.83;;;6.97;;
37507;SDS011;23360;46.936;15.514;2023-12-20T05:26:29;15.18;;;6.38;;
37507;SDS011;23360;46.936;15.514;2023-12-20T05:28:56;18.33;;;7.03;;
37507;SDS011;23360;46.936;15.514;2023-12-20T05:31:23;17.10;;;6.25;;
37507;SDS011;23360;46.936;15.514;2023-12-20T05:33:49;22.70;;;6.53;;
37507;SDS011;23360;46.936;15.514;2023-12-20T05:36:16;19.75;;;6.82;;
37507;SDS011;23360;46.936;15.514;2023-12-20T05:38:43;20.75;;;6.45;;
37507;SDS011;23360;46.936;15.514;2023-12-20T05:41:10;15.00;;;6.03;;
37507;SDS011;23360;46.936;15.514;2023-12-20T05:43:36;21.98;;;7.22;;
37507;SDS011;23360;46.936;15.514;2023-12-20T05:46:03;15.35;;;5.60;;
37507;SDS011;23360;46.936;15.514;2023-12-20T05:48:29;15.48;;;6.25;;
37507;SDS011;23360;46.936;15.514;2023-12-20T05:50:56;19.25;;;6.88;;
37507;SDS011;23360;46.936;15.514;2023-12-20T05:53:23;20.70;;;6.25;;
37507;SDS011;23360;46.936;15.514;2023-12-20T05:55:51;13.10;;;6.38;;
37507;SDS011;23360;46.936;15.514;2023-12-20T05:58:17;27.58;;;6.68;;
37507;SDS011;23360;46.936;15.514;2023-12-20T06:00:44;22.23;;;6.50;;
37507;SDS011;23360;46.936;15.514;2023-12-20T06:03:12;20.33;;;7.05;;
37507;SDS011;23360;46.936;15.514;2023-12-20T06:05:39;25.00;;;7.35;;
37507;SDS011;23360;46.936;15.514;2023-12-20T06:08:05;17.70;;;7.85;;
37507;SDS011;23360;46.936;15.514;2023-12-20T06:10:32;23.45;;;7.57;;
37507;SDS011;23360;46.936;15.514;2023-12-20T06:12:59;19.75;;;6.68;;
37507;SDS011;23360;46.936;15.514;2023-12-20T06:15:27;14.95;;;6.75;;
37507;SDS011;23360;46.936;15.514;2023-12-20T06:17:53;20.98;;;7.03;;
37507;SDS011;23360;46.936;15.514;2023-12-20T06:20:21;25.00;;;7.63;;
37507;SDS011;23360;46.936;15.514;2023-12-20T06:22:47;24.45;;;9.63;;
37507;SDS011;23360;46.936;15.514;2023-12-20T06:25:14;32.28;;;11.48;;
37507;SDS011;23360;46.936;15.514;2023-12-20T06:27:41;25.38;;;10.43;;
37507;SDS011;23360;46.936;15.514;2023-12-20T06:30:08;29.70;;;11.15;;
37507;SDS011;23360;46.936;15.514;2023-12-20T06:32:37;37.22;;;11.80;;
37507;SDS011;23360;46.936;15.514;2023-12-20T06:35:05;31.65;;;13.10;;
37507;SDS011;23360;46.936;15.514;2023-12-20T06:37:32;34.20;;;13.30;;
37507;SDS011;23360;46.936;15.514;2023-12-20T06:39:59;37.15;;;13.55;;
37507;SDS011;23360;46.936;15.514;2023-12-20T06:42:26;35.50;;;12.48;;
37507;SDS011;23360;46.936;15.514;2023-12-20T06:44:55;47.45;;;14.27;;
37507;SDS011;23360;46.936;15.514;2023-12-20T06:47:22;31.10;;;11.88;;
37507;SDS011;23360;46.936;15.514;2023-12-20T06:49:48;39.47;;;11.70;;
37507;SDS011;23360;46.936;15.514;2023-12-20T06:52:15;30.48;;;11.32;;
37507;SDS011;23360;46.936;15.514;2023-12-20T06:54:42;31.55;;;11.23;;
37507;SDS011;23360;46.936;15.514;2023-12-20T06:57:09;30.33;;;10.18;;
37507;SDS011;23360;46.936;15.514;2023-12-20T06:59:39;26.45;;;8.70;;
37507;SDS011;23360;46.936;15.514;2023-12-20T07:02:06;28.33;;;8.25;;
37507;SDS011;23360;46.936;15.514;2023-12-20T07:04:40;27.65;;;9.73;;
37507;SDS011;23360;46.936;15.514;2023-12-20T07:07:07;42.08;;;15.15;;
37507;SDS011;23360;46.936;15.514;2023-12-20T07:09:33;31.58;;;13.15;;
37507;SDS011;23360;46.936;15.514;2023-12-20T07:12:00;39.90;;;14.73;;
37507;SDS011;23360;46.936;15.514;2023-12-20T07:14:26;27.00;;;10.32;;
37507;SDS011;23360;46.936;15.514;2023-12-20T07:16:54;29.88;;;8.05;;
37507;SDS011;23360;46.936;15.514;2023-12-20T07:19:21;26.60;;;8.27;;
37507;SDS011;23360;46.936;15.514;2023-12-20T07:21:47;24.88;;;10.10;;
37507;SDS011;23360;46.936;15.514;2023-12-20T07:24:14;33.22;;;10.75;;
37507;SDS011;23360;46.936;15.514;2023-12-20T07:26:41;26.38;;;9.85;;
37507;SDS011;23360;46.936;15.514;2023-12-20T07:29:07;23.50;;;9.90;;
37507;SDS011;23360;46.936;15.514;2023-12-20T07:31:34;22.30;;;9.45;;
37507;SDS011;23360;46.936;15.514;2023-12-20T07:34:01;22.52;;;7.90;;
37507;SDS011;23360;46.936;15.514;2023-12-20T07:36:28;33.72;;;11.93;;
37507;SDS011;23360;46.936;15.514;2023-12-20T07:38:54;26.95;;;10.10;;
37507;SDS011;23360;46.936;15.514;2023-12-20T07:41:21;25.73;;;10.68;;
37507;SDS011;23360;46.936;15.514;2023-12-20T07:43:48;31.75;;;11.60;;
37507;SDS011;23360;46.936;15.514;2023-12-20T07:46:15;34.20;;;12.10;;
37507;SDS011;23360;46.936;15.514;2023-12-20T07:48:42;23.98;;;10.15;;
37507;SDS011;23360;46.936;15.514;2023-12-20T07:51:11;32.67;;;12.10;;
37507;SDS011;23360;46.936;15.514;2023-12-20T07:53:38;29.60;;;11.57;;
37507;SDS011;23360;46.936;15.514;2023-12-20T07:56:17;32.47;;;11.43;;
37507;SDS011;23360;46.936;15.514;2023-12-20T07:58:44;32.50;;;11.35;;
37507;SDS011;23360;46.936;15.514;2023-12-20T08:01:18;27.58;;;11.13;;
37507;SDS011;23360;46.936;15.514;2023-12-20T08:03:45;30.60;;;11.05;;
37507;SDS011;23360;46.936;15.514;2023-12-20T08:06:13;26.77;;;12.38;;
37507;SDS011;23360;46.936;15.514;2023-12-20T08:08:40;16.75;;;5.57;;
37507;SDS011;23360;46.936;15.514;2023-12-20T08:11:08;16.17;;;5.82;;
37507;SDS011;23360;46.936;15.514;2023-12-20T08:13:34;21.88;;;6.72;;
37507;SDS011;23360;46.936;15.514;2023-12-20T08:16:01;16.40;;;6.50;;
37507;SDS011;23360;46.936;15.514;2023-12-20T08:18:31;14.25;;;5.15;;
37507;SDS011;23360;46.936;15.514;2023-12-20T08:20:58;23.67;;;7.78;;
37507;SDS011;23360;46.936;15.514;2023-12-20T08:23:25;20.52;;;7.05;;
37507;SDS011;23360;46.936;15.514;2023-12-20T08:25:53;33.92;;;8.05;;
37507;SDS011;23360;46.936;15.514;2023-12-20T08:28:20;20.65;;;7.28;;
37507;SDS011;23360;46.936;15.514;2023-12-20T08:30:47;19.65;;;5.90;;
37507;SDS011;23360;46.936;15.514;2023-12-20T08:33:13;18.50;;;7.45;;
37507;SDS011;23360;46.936;15.514;2023-12-20T08:35:40;18.85;;;7.40;;
37507;SDS011;23360;46.936;15.514;2023-12-20T08:38:07;18.92;;;6.85;;
37507;SDS011;23360;46.936;15.514;2023-12-20T08:40:34;18.77;;;7.78;;
37507;SDS011;23360;46.936;15.514;2023-12-20T08:43:00;21.77;;;7.35;;
37507;SDS011;23360;46.936;15.514;2023-12-20T08:45:27;26.10;;;8.52;;
37507;SDS011;23360;46.936;15.514;2023-12-20T08:47:54;23.50;;;9.13;;
37507;SDS011;23360;46.936;15.514;2023-12-20T08:50:24;21.58;;;6.72;;
37507;SDS011;23360;46.936;15.514;2023-12-20T08:52:51;20.27;;;7.80;;
37507;SDS011;23360;46.936;15.514;2023-12-20T08:55:19;26.38;;;10.38;;
37507;SDS011;23360;46.936;15.514;2023-12-20T08:57:45;23.88;;;9.10;;
37507;SDS011;23360;46.936;15.514;2023-12-20T09:00:12;22.17;;;8.48;;
37507;SDS011;23360;46.936;15.514;2023-12-20T09:02:39;27.05;;;9.70;;
37507;SDS011;23360;46.936;15.514;2023-12-20T09:05:07;34.05;;;10.00;;
37507;SDS011;23360;46.936;15.514;2023-12-20T09:07:34;20.52;;;8.88;;
37507;SDS011;23360;46.936;15.514;2023-12-20T09:10:01;28.02;;;7.93;;
37507;SDS011;23360;46.936;15.514;2023-12-20T09:12:27;20.48;;;7.78;;
37507;SDS011;23360;46.936;15.514;2023-12-20T09:14:54;18.63;;;7.65;;
37507;SDS011;23360;46.936;15.514;2023-12-20T09:17:21;19.67;;;7.85;;
37507;SDS011;23360;46.936;15.514;2023-12-20T09:19:49;21.80;;;8.15;;
37507;SDS011;23360;46.936;15.514;2023-12-20T09:22:19;28.63;;;6.45;;
37507;SDS011;23360;46.936;15.514;2023-12-20T09:24:46;26.38;;;6.13;;
37507;SDS011;23360;46.936;15.514;2023-12-20T09:27:13;20.67;;;6.68;;
37507;SDS011;23360;46.936;15.514;2023-12-20T09:29:39;16.13;;;5.95;;
37507;SDS011;23360;46.936;15.514;2023-12-20T09:32:06;12.32;;;4.57;;
37507;SDS011;23360;46.936;15.514;2023-12-20T09:34:32;15.63;;;5.63;;
37507;SDS011;23360;46.936;15.514;2023-12-20T09:36:59;14.93;;;5.10;;
37507;SDS011;23360;46.936;15.514;2023-12-20T09:39:26;16.98;;;6.70;;
37507;SDS011;23360;46.936;15.514;2023-12-20T09:42:03;31.05;;;9.77;;
37507;SDS011;23360;46.936;15.514;2023-12-20T09:44:31;25.70;;;10.05;;
37507;SDS011;23360;46.936;15.514;2023-12-20T09:46:57;28.45;;;9.98;;
37507;SDS011;23360;46.936;15.514;2023-12-20T09:49:25;23.88;;;9.65;;
37507;SDS011;23360;46.936;15.514;2023-12-20T09:51:52;12.82;;;5.32;;
37507;SDS011;23360;46.936;15.514;2023-12-20T09:54:19;16.65;;;6.53;;
37507;SDS011;23360;46.936;15.514;2023-12-20T09:56:47;21.58;;;6.35;;
37507;SDS011;23360;46.936;15.514;2023-12-20T09:59:14;22.33;;;5.82;;
37507;SDS011;23360;46.936;15.514;2023-12-20T10:01:41;19.55;;;6.32;;
37507;SDS011;23360;46.936;15.514;2023-12-20T10:04:09;19.88;;;6.03;;
37507;SDS011;23360;46.936;15.514;2023-12-20T10:06:54;16.55;;;6.10;;
37507;SDS011;23360;46.936;15.514;2023-12-20T10:09:23;13.15;;;4.93;;
37507;SDS011;23360;46.936;15.514;2023-12-20T10:11:50;19.95;;;4.88;;
37507;SDS011;23360;46.936;15.514;2023-12-20T10:14:20;14.52;;;5.63;;
37507;SDS011;23360;46.936;15.514;2023-12-20T10:16:49;15.27;;;6.03;;
37507;SDS011;23360;46.936;15.514;2023-12-20T10:19:16;15.77;;;6.95;;
37507;SDS011;23360;46.936;15.514;2023-12-20T10:21:44;15.95;;;6.15;;
37507;SDS011;23360;46.936;15.514;2023-12-20T10:24:16;23.23;;;7.38;;
37507;SDS011;23360;46.936;15.514;2023-12-20T10:26:43;17.85;;;7.13;;
37507;SDS011;23360;46.936;15.514;2023-12-20T10:29:09;12.48;;;4.38;;
37507;SDS011;23360;46.936;15.514;2023-12-20T10:31:36;14.57;;;4.68;;
37507;SDS011;23360;46.936;15.514;2023-12-20T10:34:05;20.00;;;5.53;;
37507;SDS011;23360;46.936;15.514;2023-12-20T10:36:32;16.83;;;6.80;;
37507;SDS011;23360;46.936;15.514;2023-12-20T10:38:59;14.80;;;6.72;;
37507;SDS011;23360;46.936;15.514;2023-12-20T10:41:29;18.77;;;7.55;;
37507;SDS011;23360;46.936;15.514;2023-12-20T10:44:03;12.82;;;5.57;;
37507;SDS011;23360;46.936;15.514;2023-12-20T10:46:32;15.07;;;5.43;;
37507;SDS011;23360;46.936;15.514;2023-12-20T10:49:01;13.27;;;5.20;;
37507;SDS011;23360;46.936;15.514;2023-12-20T10:51:28;12.88;;;5.07;;
37507;SDS011;23360;46.936;15.514;2023-12-20T10:53:58;15.60;;;4.63;;
37507;SDS011;23360;46.936;15.514;2023-12-20T10:56:25;14.20;;;4.75;;
37507;SDS011;23360;46.936;15.514;2023-12-20T10:58:54;14.23;;;4.82;;
37507;SDS011;23360;46.936;15.514;2023-12-20T11:01:22;16.33;;;4.97;;
37507;SDS011;23360;46.936;15.514;2023-12-20T11:03:51;12.32;;;5.22;;
37507;SDS011;23360;46.936;15.514;2023-12-20T11:09:24;11.00;;;4.18;;
37507;SDS011;23360;46.936;15.514;2023-12-20T11:14:45;15.98;;;4.68;;
37507;SDS011;23360;46.936;15.514;2023-12-20T11:17:13;15.68;;;5.35;;
37507;SDS011;23360;46.936;15.514;2023-12-20T11:22:21;11.98;;;4.85;;
37507;SDS011;23360;46.936;15.514;2023-12-20T11:24:51;12.73;;;4.43;;
37507;SDS011;23360;46.936;15.514;2023-12-20T11:27:19;12.50;;;4.20;;
37507;SDS011;23360;46.936;15.514;2023-12-20T11:29:52;16.08;;;5.90;;
37507;SDS011;23360;46.936;15.514;2023-12-20T11:34:54;13.63;;;5.32;;
37507;SDS011;23360;46.936;15.514;2023-12-20T11:37:21;17.60;;;6.00;;
37507;SDS011;23360;46.936;15.514;2023-12-20T11:39:55;10.60;;;4.30;;
37507;SDS011;23360;46.936;15.514;2023-12-20T11:42:23;9.88;;;3.80;;
37507;SDS011;23360;46.936;15.514;2023-12-20T11:44:50;11.60;;;4.03;;
37507;SDS011;23360;46.936;15.514;2023-12-20T11:47:16;14.82;;;4.18;;
37507;SDS011;23360;46.936;15.514;2023-12-20T11:49:48;13.10;;;5.65;;
37507;SDS011;23360;46.936;15.514;2023-12-20T11:52:15;16.42;;;5.53;;
37507;SDS011;23360;46.936;15.514;2023-12-20T11:54:42;12.07;;;4.68;;
37507;SDS011;23360;46.936;15.514;2023-12-20T11:57:09;10.55;;;4.57;;
37507;SDS011;23360;46.936;15.514;2023-12-20T11:59:36;13.18;;;4.72;;
37507;SDS011;23360;46.936;15.514;2023-12-20T12:02:02;12.40;;;5.07;;
37507;SDS011;23360;46.936;15.514;2023-12-20T12:04:29;16.50;;;4.82;;
37507;SDS011;23360;46.936;15.514;2023-12-20T12:06:56;13.10;;;4.72;;
37507;SDS011;23360;46.936;15.514;2023-12-20T12:09:23;12.68;;;4.00;;
37507;SDS011;23360;46.936;15.514;2023-12-20T12:11:50;30.23;;;8.10;;
37507;SDS011;23360;46.936;15.514;2023-12-20T12:14:16;19.38;;;7.95;;
37507;SDS011;23360;46.936;15.514;2023-12-20T12:16:43;18.35;;;6.97;;
37507;SDS011;23360;46.936;15.514;2023-12-20T12:19:20;16.48;;;6.57;;
37507;SDS011;23360;46.936;15.514;2023-12-20T12:21:46;27.90;;;6.63;;
37507;SDS011;23360;46.936;15.514;2023-12-20T12:24:13;33.33;;;7.28;;
37507;SDS011;23360;46.936;15.514;2023-12-20T12:26:40;17.35;;;6.03;;
37507;SDS011;23360;46.936;15.514;2023-12-20T12:29:09;17.30;;;6.13;;
37507;SDS011;23360;46.936;15.514;2023-12-20T12:31:36;19.98;;;4.53;;
37507;SDS011;23360;46.936;15.514;2023-12-20T12:34:03;21.70;;;5.28;;
37507;SDS011;23360;46.936;15.514;2023-12-20T12:36:30;16.77;;;5.43;;
37507;SDS011;23360;46.936;15.514;2023-12-20T12:38:57;19.02;;;5.13;;
37507;SDS011;23360;46.936;15.514;2023-12-20T12:41:24;19.52;;;5.35;;
37507;SDS011;23360;46.936;15.514;2023-12-20T12:43:51;17.52;;;5.13;;
37507;SDS011;23360;46.936;15.514;2023-12-20T12:46:17;16.63;;;5.50;;
37507;SDS011;23360;46.936;15.514;2023-12-20T12:48:44;12.50;;;4.53;;
37507;SDS011;23360;46.936;15.514;2023-12-20T12:51:12;13.48;;;4.22;;
37507;SDS011;23360;46.936;15.514;2023-12-20T12:53:40;15.20;;;5.05;;
37507;SDS011;23360;46.936;15.514;2023-12-20T12:56:07;11.35;;;4.90;;
37507;SDS011;23360;46.936;15.514;2023-12-20T12:58:34;12.57;;;4.18;;
37507;SDS011;23360;46.936;15.514;2023-12-20T13:01:01;14.68;;;4.45;;
37507;SDS011;23360;46.936;15.514;2023-12-20T13:03:28;11.38;;;4.35;;
37507;SDS011;23360;46.936;15.514;2023-12-20T13:05:54;20.05;;;5.65;;
37507;SDS011;23360;46.936;15.514;2023-12-20T13:08:21;28.77;;;8.57;;
37507;SDS011;23360;46.936;15.514;2023-12-20T13:10:48;13.75;;;4.93;;
37507;SDS011;23360;46.936;15.514;2023-12-20T13:13:15;12.68;;;5.07;;
37507;SDS011;23360;46.936;15.514;2023-12-20T13:15:43;11.85;;;4.85;;
37507;SDS011;23360;46.936;15.514;2023-12-20T13:18:17;18.90;;;5.70;;
37507;SDS011;23360;46.936;15.514;2023-12-20T13:20:45;29.88;;;5.70;;
37507;SDS011;23360;46.936;15.514;2023-12-20T13:23:12;12.20;;;5.05;;
37507;SDS011;23360;46.936;15.514;2023-12-20T13:25:39;14.98;;;5.65;;
37507;SDS011;23360;46.936;15.514;2023-12-20T13:28:06;19.35;;;5.80;;
37507;SDS011;23360;46.936;15.514;2023-12-20T13:30:32;22.42;;;6.75;;
37507;SDS011;23360;46.936;15.514;2023-12-20T13:32:59;29.30;;;5.53;;
37507;SDS011;23360;46.936;15.514;2023-12-20T13:35:26;19.23;;;6.50;;
37507;SDS011;23360;46.936;15.514;2023-12-20T13:37:52;20.77;;;6.25;;
37507;SDS011;23360;46.936;15.514;2023-12-20T13:40:19;27.58;;;9.07;;
37507;SDS011;23360;46.936;15.514;2023-12-20T13:42:46;29.75;;;9.10;;
37507;SDS011;23360;46.936;15.514;2023-12-20T13:45:13;23.17;;;8.43;;
37507;SDS011;23360;46.936;15.514;2023-12-20T13:47:41;23.60;;;8.50;;
37507;SDS011;23360;46.936;15.514;2023-12-20T13:50:08;30.40;;;10.05;;
37507;SDS011;23360;46.936;15.514;2023-12-20T13:52:34;20.83;;;8.15;;
37507;SDS011;23360;46.936;15.514;2023-12-20T13:55:04;22.35;;;8.27;;
37507;SDS011;23360;46.936;15.514;2023-12-20T13:57:35;21.98;;;7.25;;
37507;SDS011;23360;46.936;15.514;2023-12-20T14:00:20;20.25;;;7.72;;
37507;SDS011;23360;46.936;15.514;2023-12-20T14:02:47;30.50;;;7.75;;
37507;SDS011;23360;46.936;15.514;2023-12-20T14:05:14;19.80;;;6.93;;
37507;SDS011;23360;46.936;15.514;2023-12-20T14:07:44;20.83;;;7.65;;
37507;SDS011;23360;46.936;15.514;2023-12-20T14:10:12;27.27;;;7.43;;
37507;SDS011;23360;46.936;15.514;2023-12-20T14:12:42;36.47;;;11.88;;
37507;SDS011;23360;46.936;15.514;2023-12-20T14:15:10;33.78;;;11.52;;
37507;SDS011;23360;46.936;15.514;2023-12-20T14:17:39;27.20;;;10.55;;
37507;SDS011;23360;46.936;15.514;2023-12-20T14:20:06;26.10;;;8.75;;
37507;SDS011;23360;46.936;15.514;2023-12-20T14:22:34;25.67;;;9.27;;
37507;SDS011;23360;46.936;15.514;2023-12-20T14:25:01;24.23;;;8.60;;
37507;SDS011;23360;46.936;15.514;2023-12-20T14:27:27;33.72;;;10.57;;
37507;SDS011;23360;46.936;15.514;2023-12-20T14:29:54;27.30;;;8.75;;
37507;SDS011;23360;46.936;15.514;2023-12-20T14:32:21;24.05;;;7.53;;